Pearl, MS

3:01 AM CDT on August 02, 2014 (GMT -0500)
Jackson-Evers International (KJAN) Elev 328 ft | 32.32 °N, 90.08 °W | Change Station

Current weather conditions updated 1 hour ago

Overcast
Overcast
73 °F
Feels Like 73 °F
N
0
Wind Variable Wind from North

Today is forecast to be Much Warmer than yesterday.

Today
High -- | Low -- °F
--% Chance of Precip.
Yesterday
High -- | Low -- °F
Precip. -- in
6:15 AM 7:56 PM
Waxing Crescent, 33% visible
Pressure 30.00 in
Visibility 10.0 miles
Clouds Overcast 6500 ft
Dew Point 71 °F
Humidity 93%
Rainfall 0.00 in
Snow Depth Not available.
UV 0 out of 12
Pollen 2.10 out of 12
Air Quality Not available.
Flu Activity Not available.
METAR KJAN 020654Z AUTO 00000KT 10SM OVC065 23/22 A3001 RMK AO2 RAB08E24 SLP158 P0000 T02280217

More Conditions Fewer Conditions

Pressure 30.00 in
Visibility 10.0 miles
Clouds Overcast 6500 ft
Dew Point 71 °F
Humidity 93%
Rainfall 0.00 in
Snow Depth Not available.
UV 0 out of 12
Pollen 2.10 out of 12
Air Quality Not available.
Flu Activity Not available.
METAR KJAN 020654Z AUTO 00000KT 10SM OVC065 23/22 A3001 RMK AO2 RAB08E24 SLP158 P0000 T02280217

More Conditions Fewer Conditions

10-Day Weather Forecast

Almanac

Astronomy

Aug. 02, 2014 Rise Set
Actual Time 6:15 AM CDT 7:56 PM CDT
Civil Twilight 5:49 AM CDT 8:23 PM CDT
Nautical Twilight 5:16 AM CDT 8:55 PM CDT
Astronomical Twilight 4:43 AM CDT 9:29 PM CDT
Moon 12:12 PM CDT 11:41 PM CDT
Length of Visible Light 14h 34m
Length of Day
13h 41m
Tomorrow will be 1m 31s shorter.
Waxing Crescent, 33% of the Moon is Illuminated
Today
Waxing Crescent
Aug 3
First Quarter
Aug 10
Full
Aug 17
Last Quarter
Aug 25
New

Today's Extremes

State Highs State Lows

Community

WunderPhotos

Upload Photos

1,739,843 photos uploaded!

Nearby

Snow Depth

Station Depth Elevation
No new snow has been reported.

Earthquake Activity

City Distance Mag. Time & Date
No recent earthquake activity has been reported nearby.
Minimum magnitude displayed is 2.5.

Coastal Water Temperatures

Place Temperature
No Stations Reporting

Nearby Weather Stations

Station Location Temp. Dew Point Humidity Wind Precip. Elev Updated Type
Country Meadows, Brandon, MS 71.1 °F 70 °F 95% ENE  at  0.0 mph - / hr 367 ft 2:50 AM CDT Normal
Raintree Place, Brandon, MS 72.1 °F 71 °F 95% SE  at  0.0 mph - / hr 410 ft 2:58 AM CDT Normal
Brinkly, Jackson, MS 71.8 °F 71 °F 98% East  at  2.2 mph - / hr 344 ft 2:57 AM CDT Normal
Red Oak, Gluckstadt, MS 72.3 °F 71 °F 95% WNW  at  0.0 mph 0.00 in / hr 289 ft 3:01 AM CDT Rapid Fire
May Estates, Brandon, MS 71.5 °F 69 °F 92% ESE  at  0.0 mph 0.00 in / hr 380 ft 3:01 AM CDT Rapid Fire
Leesburg, Morton, MS 70.9 °F 69 °F 93% North  at  0.0 mph 0.00 in / hr 404 ft 2:48 AM CDT Normal

Show More Stations Show Fewer Stations